sensor_id;sensor_type;location;lat;lon;timestamp;P1;durP1;ratioP1;P2;durP2;ratioP2
7169;SDS011;3626;42.656;23.312;2022-09-30T00:00:04;15.07;;;9.80;;
7169;SDS011;3626;42.656;23.312;2022-09-30T00:00:11;15.16;;;9.70;;
7169;SDS011;3626;42.656;23.312;2022-09-30T00:00:17;15.82;;;9.95;;
7169;SDS011;3626;42.656;23.312;2022-09-30T00:00:23;15.24;;;9.80;;
7169;SDS011;3626;42.656;23.312;2022-09-30T00:00:30;14.53;;;9.40;;
7169;SDS011;3626;42.656;23.312;2022-09-30T00:00:37;14.70;;;9.33;;
7169;SDS011;3626;42.656;23.312;2022-09-30T00:00:42;14.57;;;9.23;;
7169;SDS011;3626;42.656;23.312;2022-09-30T00:00:49;14.75;;;9.27;;
7169;SDS011;3626;42.656;23.312;2022-09-30T00:00:54;14.73;;;9.27;;
7169;SDS011;3626;42.656;23.312;2022-09-30T00:01:00;14.52;;;9.20;;
7169;SDS011;3626;42.656;23.312;2022-09-30T00:01:07;14.43;;;9.33;;
7169;SDS011;3626;42.656;23.312;2022-09-30T00:01:13;14.33;;;9.37;;
7169;SDS011;3626;42.656;23.312;2022-09-30T00:01:19;14.63;;;9.20;;
7169;SDS011;3626;42.656;23.312;2022-09-30T00:01:25;15.05;;;9.20;;
7169;SDS011;3626;42.656;23.312;2022-09-30T00:01:31;15.40;;;9.48;;
7169;SDS011;3626;42.656;23.312;2022-09-30T00:01:38;15.13;;;9.55;;
7169;SDS011;3626;42.656;23.312;2022-09-30T00:01:45;15.20;;;9.60;;
7169;SDS011;3626;42.656;23.312;2022-09-30T00:01:52;15.42;;;9.58;;
7169;SDS011;3626;42.656;23.312;2022-09-30T00:01:58;16.83;;;9.68;;
7169;SDS011;3626;42.656;23.312;2022-09-30T00:02:04;17.03;;;9.73;;
7169;SDS011;3626;42.656;23.312;2022-09-30T00:02:10;16.55;;;9.60;;
7169;SDS011;3626;42.656;23.312;2022-09-30T00:02:16;16.42;;;9.65;;
7169;SDS011;3626;42.656;23.312;2022-09-30T00:02:22;16.40;;;9.80;;
7169;SDS011;3626;42.656;23.312;2022-09-30T00:02:28;16.67;;;9.88;;
7169;SDS011;3626;42.656;23.312;2022-09-30T00:02:33;16.90;;;9.93;;
7169;SDS011;3626;42.656;23.312;2022-09-30T00:02:39;17.48;;;10.10;;
7169;SDS011;3626;42.656;23.312;2022-09-30T00:02:45;18.95;;;10.32;;
7169;SDS011;3626;42.656;23.312;2022-09-30T00:02:51;19.17;;;10.47;;
7169;SDS011;3626;42.656;23.312;2022-09-30T00:02:57;18.00;;;10.50;;
7169;SDS011;3626;42.656;23.312;2022-09-30T00:03:02;17.85;;;10.40;;
7169;SDS011;3626;42.656;23.312;2022-09-30T00:03:08;17.80;;;10.48;;
7169;SDS011;3626;42.656;23.312;2022-09-30T00:03:15;18.47;;;10.47;;
7169;SDS011;3626;42.656;23.312;2022-09-30T00:03:20;18.15;;;10.20;;
7169;SDS011;3626;42.656;23.312;2022-09-30T00:03:28;18.00;;;10.03;;
7169;SDS011;3626;42.656;23.312;2022-09-30T00:03:33;17.83;;;9.95;;
7169;SDS011;3626;42.656;23.312;2022-09-30T00:03:40;17.54;;;9.90;;
7169;SDS011;3626;42.656;23.312;2022-09-30T00:03:46;16.90;;;9.80;;
7169;SDS011;3626;42.656;23.312;2022-09-30T00:03:53;17.18;;;9.74;;
7169;SDS011;3626;42.656;23.312;2022-09-30T00:04:00;18.10;;;9.80;;
7169;SDS011;3626;42.656;23.312;2022-09-30T00:04:07;18.37;;;9.77;;
7169;SDS011;3626;42.656;23.312;2022-09-30T00:04:18;17.52;;;9.58;;
7169;SDS011;3626;42.656;23.312;2022-09-30T00:04:25;16.75;;;9.60;;
7169;SDS011;3626;42.656;23.312;2022-09-30T00:04:31;16.63;;;9.50;;
7169;SDS011;3626;42.656;23.312;2022-09-30T00:04:37;16.73;;;9.40;;
7169;SDS011;3626;42.656;23.312;2022-09-30T00:04:44;16.00;;;9.37;;
7169;SDS011;3626;42.656;23.312;2022-09-30T00:04:49;17.55;;;9.20;;
7169;SDS011;3626;42.656;23.312;2022-09-30T00:04:55;16.38;;;9.20;;
7169;SDS011;3626;42.656;23.312;2022-09-30T00:05:01;16.37;;;9.20;;
7169;SDS011;3626;42.656;23.312;2022-09-30T00:05:07;16.45;;;9.23;;
7169;SDS011;3626;42.656;23.312;2022-09-30T00:05:13;16.92;;;9.50;;
7169;SDS011;3626;42.656;23.312;2022-09-30T00:05:19;17.20;;;9.40;;
7169;SDS011;3626;42.656;23.312;2022-09-30T00:05:25;17.40;;;9.45;;
7169;SDS011;3626;42.656;23.312;2022-09-30T00:05:30;17.73;;;9.57;;
7169;SDS011;3626;42.656;23.312;2022-09-30T00:05:36;17.65;;;9.50;;
7169;SDS011;3626;42.656;23.312;2022-09-30T00:05:42;17.63;;;9.47;;
7169;SDS011;3626;42.656;23.312;2022-09-30T00:05:47;16.10;;;9.48;;
7169;SDS011;3626;42.656;23.312;2022-09-30T00:06:02;15.89;;;9.63;;
7169;SDS011;3626;42.656;23.312;2022-09-30T00:06:09;15.23;;;9.63;;
7169;SDS011;3626;42.656;23.312;2022-09-30T00:06:15;15.20;;;9.68;;
7169;SDS011;3626;42.656;23.312;2022-09-30T00:06:21;14.52;;;9.80;;
7169;SDS011;3626;42.656;23.312;2022-09-30T00:06:28;14.05;;;9.70;;
7169;SDS011;3626;42.656;23.312;2022-09-30T00:06:35;13.70;;;9.80;;
7169;SDS011;3626;42.656;23.312;2022-09-30T00:06:41;13.65;;;9.90;;
7169;SDS011;3626;42.656;23.312;2022-09-30T00:06:46;13.93;;;9.98;;
7169;SDS011;3626;42.656;23.312;2022-09-30T00:06:53;13.56;;;10.00;;
7169;SDS011;3626;42.656;23.312;2022-09-30T00:06:59;13.70;;;9.88;;
7169;SDS011;3626;42.656;23.312;2022-09-30T00:07:05;13.70;;;9.70;;
7169;SDS011;3626;42.656;23.312;2022-09-30T00:07:10;13.85;;;9.80;;
7169;SDS011;3626;42.656;23.312;2022-09-30T00:07:17;13.62;;;9.76;;
7169;SDS011;3626;42.656;23.312;2022-09-30T00:07:23;16.30;;;9.77;;
7169;SDS011;3626;42.656;23.312;2022-09-30T00:07:29;17.50;;;10.15;;
7169;SDS011;3626;42.656;23.312;2022-09-30T00:07:34;18.13;;;10.35;;
7169;SDS011;3626;42.656;23.312;2022-09-30T00:07:40;18.17;;;10.27;;
7169;SDS011;3626;42.656;23.312;2022-09-30T00:07:46;18.23;;;10.33;;
7169;SDS011;3626;42.656;23.312;2022-09-30T00:07:51;18.33;;;10.40;;
7169;SDS011;3626;42.656;23.312;2022-09-30T00:07:57;18.85;;;10.60;;
7169;SDS011;3626;42.656;23.312;2022-09-30T00:08:03;19.10;;;10.83;;
7169;SDS011;3626;42.656;23.312;2022-09-30T00:08:09;19.23;;;10.88;;
7169;SDS011;3626;42.656;23.312;2022-09-30T00:08:14;19.40;;;10.80;;
7169;SDS011;3626;42.656;23.312;2022-09-30T00:08:20;19.27;;;10.88;;
7169;SDS011;3626;42.656;23.312;2022-09-30T00:08:26;17.43;;;10.60;;
7169;SDS011;3626;42.656;23.312;2022-09-30T00:08:32;16.75;;;10.15;;
7169;SDS011;3626;42.656;23.312;2022-09-30T00:08:37;16.48;;;10.10;;
7169;SDS011;3626;42.656;23.312;2022-09-30T00:08:43;17.05;;;10.20;;
7169;SDS011;3626;42.656;23.312;2022-09-30T00:08:49;17.00;;;10.15;;
7169;SDS011;3626;42.656;23.312;2022-09-30T00:08:55;16.60;;;10.10;;
7169;SDS011;3626;42.656;23.312;2022-09-30T00:09:02;15.83;;;9.83;;
7169;SDS011;3626;42.656;23.312;2022-09-30T00:09:09;16.38;;;9.76;;
7169;SDS011;3626;42.656;23.312;2022-09-30T00:09:16;16.17;;;9.70;;
7169;SDS011;3626;42.656;23.312;2022-09-30T00:09:22;15.30;;;9.73;;
7169;SDS011;3626;42.656;23.312;2022-09-30T00:09:28;15.27;;;9.88;;
7169;SDS011;3626;42.656;23.312;2022-09-30T00:09:34;15.67;;;10.10;;
7169;SDS011;3626;42.656;23.312;2022-09-30T00:09:39;15.38;;;10.02;;
7169;SDS011;3626;42.656;23.312;2022-09-30T00:09:45;16.58;;;10.20;;
7169;SDS011;3626;42.656;23.312;2022-09-30T00:09:52;16.62;;;10.02;;
7169;SDS011;3626;42.656;23.312;2022-09-30T00:09:58;16.50;;;9.90;;
7169;SDS011;3626;42.656;23.312;2022-09-30T00:10:04;16.30;;;9.93;;
7169;SDS011;3626;42.656;23.312;2022-09-30T00:10:11;16.32;;;10.04;;
7169;SDS011;3626;42.656;23.312;2022-09-30T00:10:19;16.88;;;9.97;;
7169;SDS011;3626;42.656;23.312;2022-09-30T00:10:25;17.26;;;10.00;;
7169;SDS011;3626;42.656;23.312;2022-09-30T00:10:31;19.20;;;9.90;;
7169;SDS011;3626;42.656;23.312;2022-09-30T00:10:37;20.43;;;9.93;;
7169;SDS011;3626;42.656;23.312;2022-09-30T00:10:42;20.10;;;9.85;;
7169;SDS011;3626;42.656;23.312;2022-09-30T00:10:56;19.35;;;10.00;;
7169;SDS011;3626;42.656;23.312;2022-09-30T00:11:04;19.54;;;10.10;;
7169;SDS011;3626;42.656;23.312;2022-09-30T00:11:12;19.30;;;10.08;;
7169;SDS011;3626;42.656;23.312;2022-09-30T00:11:21;18.51;;;10.14;;
7169;SDS011;3626;42.656;23.312;2022-09-30T00:11:30;17.71;;;9.99;;
7169;SDS011;3626;42.656;23.312;2022-09-30T00:11:38;14.90;;;9.80;;
7169;SDS011;3626;42.656;23.312;2022-09-30T00:11:44;15.08;;;9.64;;
7169;SDS011;3626;42.656;23.312;2022-09-30T00:11:50;15.30;;;9.55;;
7169;SDS011;3626;42.656;23.312;2022-09-30T00:11:57;16.38;;;9.50;;
7169;SDS011;3626;42.656;23.312;2022-09-30T00:12:03;16.73;;;9.47;;
7169;SDS011;3626;42.656;23.312;2022-09-30T00:12:09;16.60;;;9.35;;
7169;SDS011;3626;42.656;23.312;2022-09-30T00:12:15;16.63;;;9.40;;
7169;SDS011;3626;42.656;23.312;2022-09-30T00:12:20;16.53;;;9.40;;
7169;SDS011;3626;42.656;23.312;2022-09-30T00:12:27;16.07;;;9.30;;
7169;SDS011;3626;42.656;23.312;2022-09-30T00:12:33;16.25;;;9.20;;
7169;SDS011;3626;42.656;23.312;2022-09-30T00:12:39;16.67;;;9.20;;
7169;SDS011;3626;42.656;23.312;2022-09-30T00:12:45;16.07;;;9.20;;
7169;SDS011;3626;42.656;23.312;2022-09-30T00:12:51;16.00;;;9.00;;
7169;SDS011;3626;42.656;23.312;2022-09-30T00:12:57;15.57;;;9.00;;
7169;SDS011;3626;42.656;23.312;2022-09-30T00:13:03;15.75;;;9.13;;
7169;SDS011;3626;42.656;23.312;2022-09-30T00:13:09;16.07;;;9.30;;
7169;SDS011;3626;42.656;23.312;2022-09-30T00:13:14;16.65;;;9.27;;
7169;SDS011;3626;42.656;23.312;2022-09-30T00:13:20;16.50;;;9.23;;
7169;SDS011;3626;42.656;23.312;2022-09-30T00:13:26;17.65;;;9.50;;
7169;SDS011;3626;42.656;23.312;2022-09-30T00:13:33;17.95;;;9.77;;
7169;SDS011;3626;42.656;23.312;2022-09-30T00:13:41;17.70;;;9.80;;
7169;SDS011;3626;42.656;23.312;2022-09-30T00:13:47;18.08;;;9.90;;
7169;SDS011;3626;42.656;23.312;2022-09-30T00:13:54;17.85;;;10.08;;
7169;SDS011;3626;42.656;23.312;2022-09-30T00:14:02;18.24;;;10.10;;
7169;SDS011;3626;42.656;23.312;2022-09-30T00:14:11;18.58;;;10.00;;
7169;SDS011;3626;42.656;23.312;2022-09-30T00:14:21;18.56;;;10.00;;
7169;SDS011;3626;42.656;23.312;2022-09-30T00:14:27;19.67;;;10.05;;
7169;SDS011;3626;42.656;23.312;2022-09-30T00:14:33;20.27;;;10.10;;
7169;SDS011;3626;42.656;23.312;2022-09-30T00:14:39;20.17;;;10.13;;
7169;SDS011;3626;42.656;23.312;2022-09-30T00:14:45;20.23;;;10.23;;
7169;SDS011;3626;42.656;23.312;2022-09-30T00:14:50;20.45;;;10.50;;
7169;SDS011;3626;42.656;23.312;2022-09-30T00:14:56;20.52;;;10.75;;
7169;SDS011;3626;42.656;23.312;2022-09-30T00:15:03;19.60;;;10.84;;
7169;SDS011;3626;42.656;23.312;2022-09-30T00:15:10;19.60;;;10.80;;
7169;SDS011;3626;42.656;23.312;2022-09-30T00:15:16;19.27;;;10.77;;
7169;SDS011;3626;42.656;23.312;2022-09-30T00:15:22;18.75;;;10.85;;
7169;SDS011;3626;42.656;23.312;2022-09-30T00:15:28;17.83;;;10.75;;
7169;SDS011;3626;42.656;23.312;2022-09-30T00:15:34;17.83;;;10.60;;
7169;SDS011;3626;42.656;23.312;2022-09-30T00:15:39;20.33;;;10.98;;
7169;SDS011;3626;42.656;23.312;2022-09-30T00:15:50;19.50;;;10.68;;
7169;SDS011;3626;42.656;23.312;2022-09-30T00:15:56;19.17;;;10.47;;
7169;SDS011;3626;42.656;23.312;2022-09-30T00:16:02;19.33;;;10.50;;
7169;SDS011;3626;42.656;23.312;2022-09-30T00:16:09;18.85;;;10.48;;
7169;SDS011;3626;42.656;23.312;2022-09-30T00:16:16;19.10;;;10.48;;
7169;SDS011;3626;42.656;23.312;2022-09-30T00:16:23;19.33;;;10.60;;
7169;SDS011;3626;42.656;23.312;2022-09-30T00:16:31;21.83;;;10.75;;
7169;SDS011;3626;42.656;23.312;2022-09-30T00:16:40;18.90;;;10.67;;
7169;SDS011;3626;42.656;23.312;2022-09-30T00:16:46;19.05;;;10.65;;
7169;SDS011;3626;42.656;23.312;2022-09-30T00:16:52;19.60;;;10.77;;
7169;SDS011;3626;42.656;23.312;2022-09-30T00:16:57;19.15;;;10.70;;
7169;SDS011;3626;42.656;23.312;2022-09-30T00:17:03;19.27;;;10.83;;
7169;SDS011;3626;42.656;23.312;2022-09-30T00:17:09;18.80;;;10.80;;
7169;SDS011;3626;42.656;23.312;2022-09-30T00:17:15;18.97;;;10.87;;
7169;SDS011;3626;42.656;23.312;2022-09-30T00:17:20;19.02;;;10.98;;
7169;SDS011;3626;42.656;23.312;2022-09-30T00:17:26;16.85;;;10.80;;
7169;SDS011;3626;42.656;23.312;2022-09-30T00:17:32;16.58;;;10.77;;
7169;SDS011;3626;42.656;23.312;2022-09-30T00:17:38;16.63;;;10.67;;
7169;SDS011;3626;42.656;23.312;2022-09-30T00:17:44;18.10;;;10.80;;
7169;SDS011;3626;42.656;23.312;2022-09-30T00:17:49;18.33;;;10.82;;
7169;SDS011;3626;42.656;23.312;2022-09-30T00:17:55;18.35;;;10.80;;
7169;SDS011;3626;42.656;23.312;2022-09-30T00:18:03;18.23;;;10.60;;
7169;SDS011;3626;42.656;23.312;2022-09-30T00:18:10;19.12;;;10.86;;
7169;SDS011;3626;42.656;23.312;2022-09-30T00:18:16;19.00;;;10.73;;
7169;SDS011;3626;42.656;23.312;2022-09-30T00:18:21;19.05;;;10.75;;
7169;SDS011;3626;42.656;23.312;2022-09-30T00:18:27;19.23;;;10.77;;
7169;SDS011;3626;42.656;23.312;2022-09-30T00:18:34;19.03;;;10.87;;
7169;SDS011;3626;42.656;23.312;2022-09-30T00:18:41;18.56;;;10.90;;
7169;SDS011;3626;42.656;23.312;2022-09-30T00:18:47;17.87;;;10.70;;
7169;SDS011;3626;42.656;23.312;2022-09-30T00:18:54;18.00;;;10.77;;
7169;SDS011;3626;42.656;23.312;2022-09-30T00:19:00;19.20;;;10.90;;
7169;SDS011;3626;42.656;23.312;2022-09-30T00:19:10;18.97;;;10.87;;
7169;SDS011;3626;42.656;23.312;2022-09-30T00:19:16;18.83;;;11.10;;
7169;SDS011;3626;42.656;23.312;2022-09-30T00:19:22;19.54;;;11.28;;
7169;SDS011;3626;42.656;23.312;2022-09-30T00:19:28;19.92;;;11.20;;
7169;SDS011;3626;42.656;23.312;2022-09-30T00:19:34;19.73;;;11.07;;
7169;SDS011;3626;42.656;23.312;2022-09-30T00:19:40;20.23;;;11.10;;
7169;SDS011;3626;42.656;23.312;2022-09-30T00:19:45;20.60;;;11.38;;
7169;SDS011;3626;42.656;23.312;2022-09-30T00:19:51;20.55;;;11.45;;
7169;SDS011;3626;42.656;23.312;2022-09-30T00:19:57;20.38;;;11.27;;
7169;SDS011;3626;42.656;23.312;2022-09-30T00:20:03;19.77;;;11.27;;
7169;SDS011;3626;42.656;23.312;2022-09-30T00:20:09;21.13;;;11.90;;
7169;SDS011;3626;42.656;23.312;2022-09-30T00:20:15;21.17;;;11.80;;
7169;SDS011;3626;42.656;23.312;2022-09-30T00:20:21;20.20;;;11.70;;
7169;SDS011;3626;42.656;23.312;2022-09-30T00:20:27;19.67;;;11.75;;
7169;SDS011;3626;42.656;23.312;2022-09-30T00:20:33;20.50;;;11.87;;
7169;SDS011;3626;42.656;23.312;2022-09-30T00:20:39;21.90;;;11.97;;
7169;SDS011;3626;42.656;23.312;2022-09-30T00:20:45;21.40;;;11.60;;
7169;SDS011;3626;42.656;23.312;2022-09-30T00:20:51;21.50;;;11.77;;
7169;SDS011;3626;42.656;23.312;2022-09-30T00:20:57;21.40;;;11.90;;
7169;SDS011;3626;42.656;23.312;2022-09-30T00:21:03;21.10;;;11.80;;
7169;SDS011;3626;42.656;23.312;2022-09-30T00:21:10;19.73;;;11.20;;
7169;SDS011;3626;42.656;23.312;2022-09-30T00:21:17;20.26;;;11.18;;
7169;SDS011;3626;42.656;23.312;2022-09-30T00:21:23;20.63;;;11.10;;
7169;SDS011;3626;42.656;23.312;2022-09-30T00:21:30;20.60;;;11.10;;
7169;SDS011;3626;42.656;23.312;2022-09-30T00:21:38;18.90;;;11.15;;
7169;SDS011;3626;42.656;23.312;2022-09-30T00:21:44;18.43;;;11.30;;
7169;SDS011;3626;42.656;23.312;2022-09-30T00:21:50;18.80;;;11.30;;
7169;SDS011;3626;42.656;23.312;2022-09-30T00:21:55;18.77;;;11.20;;
7169;SDS011;3626;42.656;23.312;2022-09-30T00:22:02;19.66;;;11.08;;
7169;SDS011;3626;42.656;23.312;2022-09-30T00:22:08;20.90;;;11.17;;
7169;SDS011;3626;42.656;23.312;2022-09-30T00:22:14;21.55;;;11.27;;
7169;SDS011;3626;42.656;23.312;2022-09-30T00:22:20;21.93;;;11.40;;
7169;SDS011;3626;42.656;23.312;2022-09-30T00:22:25;21.60;;;11.40;;
7169;SDS011;3626;42.656;23.312;2022-09-30T00:22:31;21.55;;;11.15;;
7169;SDS011;3626;42.656;23.312;2022-09-30T00:22:37;21.17;;;11.05;;
7169;SDS011;3626;42.656;23.312;2022-09-30T00:22:43;21.33;;;10.98;;
7169;SDS011;3626;42.656;23.312;2022-09-30T00:22:49;20.90;;;10.73;;
7169;SDS011;3626;42.656;23.312;2022-09-30T00:22:54;20.13;;;10.70;;
7169;SDS011;3626;42.656;23.312;2022-09-30T00:23:00;19.65;;;10.77;;
7169;SDS011;3626;42.656;23.312;2022-09-30T00:23:06;17.95;;;10.60;;
7169;SDS011;3626;42.656;23.312;2022-09-30T00:23:12;17.27;;;10.60;;
7169;SDS011;3626;42.656;23.312;2022-09-30T00:23:17;16.67;;;10.38;;
7169;SDS011;3626;42.656;23.312;2022-09-30T00:23:23;16.88;;;10.27;;
7169;SDS011;3626;42.656;23.312;2022-09-30T00:23:31;16.90;;;10.20;;
7169;SDS011;3626;42.656;23.312;2022-09-30T00:23:37;17.80;;;10.20;;
7169;SDS011;3626;42.656;23.312;2022-09-30T00:23:43;18.46;;;10.14;;
7169;SDS011;3626;42.656;23.312;2022-09-30T00:23:49;19.95;;;10.20;;
7169;SDS011;3626;42.656;23.312;2022-09-30T00:23:55;19.77;;;10.20;;
7169;SDS011;3626;42.656;23.312;2022-09-30T00:24:02;20.60;;;10.30;;
7169;SDS011;3626;42.656;23.312;2022-09-30T00:24:09;21.67;;;10.47;;
7169;SDS011;3626;42.656;23.312;2022-09-30T00:24:15;21.37;;;10.40;;
7169;SDS011;3626;42.656;23.312;2022-09-30T00:24:21;20.95;;;10.38;;
7169;SDS011;3626;42.656;23.312;2022-09-30T00:24:26;20.25;;;10.25;;
7169;SDS011;3626;42.656;23.312;2022-09-30T00:24:32;19.83;;;10.27;;
7169;SDS011;3626;42.656;23.312;2022-09-30T00:24:39;22.07;;;10.50;;
7169;SDS011;3626;42.656;23.312;2022-09-30T00:24:45;19.83;;;10.50;;
7169;SDS011;3626;42.656;23.312;2022-09-30T00:24:51;20.07;;;10.77;;
7169;SDS011;3626;42.656;23.312;2022-09-30T00:24:56;20.33;;;10.82;;
7169;SDS011;3626;42.656;23.312;2022-09-30T00:25:02;20.10;;;11.02;;
7169;SDS011;3626;42.656;23.312;2022-09-30T00:25:09;20.97;;;11.17;;
7169;SDS011;3626;42.656;23.312;2022-09-30T00:25:15;20.87;;;11.10;;
7169;SDS011;3626;42.656;23.312;2022-09-30T00:25:20;21.35;;;11.27;;
7169;SDS011;3626;42.656;23.312;2022-09-30T00:25:26;22.00;;;11.35;;
7169;SDS011;3626;42.656;23.312;2022-09-30T00:25:32;22.23;;;11.50;;
7169;SDS011;3626;42.656;23.312;2022-09-30T00:25:38;20.67;;;11.40;;
7169;SDS011;3626;42.656;23.312;2022-09-30T00:25:43;19.77;;;11.48;;
7169;SDS011;3626;42.656;23.312;2022-09-30T00:25:49;20.05;;;11.48;;
7169;SDS011;3626;42.656;23.312;2022-09-30T00:25:58;21.00;;;11.47;;
7169;SDS011;3626;42.656;23.312;2022-09-30T00:26:06;20.90;;;10.93;;
7169;SDS011;3626;42.656;23.312;2022-09-30T00:26:16;19.33;;;10.60;;
7169;SDS011;3626;42.656;23.312;2022-09-30T00:26:24;18.97;;;10.60;;
7169;SDS011;3626;42.656;23.312;2022-09-30T00:26:30;19.02;;;10.52;;
7169;SDS011;3626;42.656;23.312;2022-09-30T00:26:38;18.32;;;10.30;;
7169;SDS011;3626;42.656;23.312;2022-09-30T00:26:43;18.30;;;10.30;;
7169;SDS011;3626;42.656;23.312;2022-09-30T00:26:49;17.80;;;10.10;;
7169;SDS011;3626;42.656;23.312;2022-09-30T00:26:55;17.30;;;10.00;;
7169;SDS011;3626;42.656;23.312;2022-09-30T00:27:01;16.83;;;10.10;;
7169;SDS011;3626;42.656;23.312;2022-09-30T00:27:06;16.92;;;10.20;;
7169;SDS011;3626;42.656;23.312;2022-09-30T00:27:12;17.52;;;10.48;;
7169;SDS011;3626;42.656;23.312;2022-09-30T00:27:22;17.70;;;10.60;;
7169;SDS011;3626;42.656;23.312;2022-09-30T00:27:27;17.63;;;10.63;;
7169;SDS011;3626;42.656;23.312;2022-09-30T00:27:33;18.58;;;10.65;;
7169;SDS011;3626;42.656;23.312;2022-09-30T00:27:40;18.74;;;10.70;;
7169;SDS011;3626;42.656;23.312;2022-09-30T00:27:46;19.17;;;10.83;;
7169;SDS011;3626;42.656;23.312;2022-09-30T00:27:51;19.73;;;11.18;;
7169;SDS011;3626;42.656;23.312;2022-09-30T00:27:57;19.38;;;11.30;;
7169;SDS011;3626;42.656;23.312;2022-09-30T00:28:03;20.63;;;11.40;;
7169;SDS011;3626;42.656;23.312;2022-09-30T00:28:11;20.70;;;11.30;;
7169;SDS011;3626;42.656;23.312;2022-09-30T00:28:17;19.98;;;11.00;;
7169;SDS011;3626;42.656;23.312;2022-09-30T00:28:23;20.25;;;11.05;;
7169;SDS011;3626;42.656;23.312;2022-09-30T00:28:29;20.35;;;11.05;;
7169;SDS011;3626;42.656;23.312;2022-09-30T00:28:35;21.25;;;11.23;;
7169;SDS011;3626;42.656;23.312;2022-09-30T00:28:41;21.10;;;11.00;;
7169;SDS011;3626;42.656;23.312;2022-09-30T00:28:48;20.24;;;10.82;;
7169;SDS011;3626;42.656;23.312;2022-09-30T00:28:55;20.28;;;10.56;;
7169;SDS011;3626;42.656;23.312;2022-09-30T00:29:03;19.34;;;10.40;;
7169;SDS011;3626;42.656;23.312;2022-09-30T00:29:09;18.30;;;10.50;;
7169;SDS011;3626;42.656;23.312;2022-09-30T00:29:15;18.78;;;10.70;;
7169;SDS011;3626;42.656;23.312;2022-09-30T00:29:21;18.65;;;10.70;;
7169;SDS011;3626;42.656;23.312;2022-09-30T00:29:26;19.10;;;10.87;;
7169;SDS011;3626;42.656;23.312;2022-09-30T00:29:32;18.90;;;10.90;;
7169;SDS011;3626;42.656;23.312;2022-09-30T00:29:38;17.75;;;10.95;;
7169;SDS011;3626;42.656;23.312;2022-09-30T00:29:44;17.80;;;10.93;;
7169;SDS011;3626;42.656;23.312;2022-09-30T00:29:50;17.57;;;10.77;;
7169;SDS011;3626;42.656;23.312;2022-09-30T00:29:55;17.27;;;11.13;;
7169;SDS011;3626;42.656;23.312;2022-09-30T00:30:01;18.00;;;11.13;;
7169;SDS011;3626;42.656;23.312;2022-09-30T00:30:08;18.80;;;11.00;;
7169;SDS011;3626;42.656;23.312;2022-09-30T00:30:15;18.00;;;10.58;;
7169;SDS011;3626;42.656;23.312;2022-09-30T00:30:21;18.23;;;10.45;;
7169;SDS011;3626;42.656;23.312;2022-09-30T00:30:27;18.27;;;10.13;;
7169;SDS011;3626;42.656;23.312;2022-09-30T00:30:32;17.92;;;10.05;;
7169;SDS011;3626;42.656;23.312;2022-09-30T00:30:38;18.02;;;10.20;;
7169;SDS011;3626;42.656;23.312;2022-09-30T00:30:44;18.58;;;10.38;;
7169;SDS011;3626;42.656;23.312;2022-09-30T00:30:50;18.90;;;10.40;;
7169;SDS011;3626;42.656;23.312;2022-09-30T00:30:57;18.35;;;10.27;;
7169;SDS011;3626;42.656;23.312;2022-09-30T00:31:04;17.54;;;10.64;;
7169;SDS011;3626;42.656;23.312;2022-09-30T00:31:13;17.83;;;10.97;;
7169;SDS011;3626;42.656;23.312;2022-09-30T00:31:21;18.13;;;11.22;;
7169;SDS011;3626;42.656;23.312;2022-09-30T00:31:29;18.33;;;11.60;;
7169;SDS011;3626;42.656;23.312;2022-09-30T00:31:36;18.97;;;11.40;;
7169;SDS011;3626;42.656;23.312;2022-09-30T00:31:44;18.76;;;11.30;;
7169;SDS011;3626;42.656;23.312;2022-09-30T00:31:49;18.77;;;11.23;;
7169;SDS011;3626;42.656;23.312;2022-09-30T00:31:55;20.92;;;11.20;;
7169;SDS011;3626;42.656;23.312;2022-09-30T00:32:01;20.52;;;10.85;;
7169;SDS011;3626;42.656;23.312;2022-09-30T00:32:07;20.20;;;10.67;;
7169;SDS011;3626;42.656;23.312;2022-09-30T00:32:12;19.73;;;10.60;;
7169;SDS011;3626;42.656;23.312;2022-09-30T00:32:18;20.02;;;10.55;;
7169;SDS011;3626;42.656;23.312;2022-09-30T00:32:24;19.73;;;10.30;;
7169;SDS011;3626;42.656;23.312;2022-09-30T00:32:29;18.83;;;10.30;;
7169;SDS011;3626;42.656;23.312;2022-09-30T00:32:35;18.52;;;10.30;;
7169;SDS011;3626;42.656;23.312;2022-09-30T00:32:41;18.58;;;10.23;;
7169;SDS011;3626;42.656;23.312;2022-09-30T00:32:46;19.37;;;10.63;;
7169;SDS011;3626;42.656;23.312;2022-09-30T00:32:52;18.20;;;10.70;;
7169;SDS011;3626;42.656;23.312;2022-09-30T00:32:58;16.90;;;10.45;;
7169;SDS011;3626;42.656;23.312;2022-09-30T00:33:04;16.60;;;10.25;;
7169;SDS011;3626;42.656;23.312;2022-09-30T00:33:10;17.35;;;10.27;;
7169;SDS011;3626;42.656;23.312;2022-09-30T00:33:16;17.05;;;10.30;;
7169;SDS011;3626;42.656;23.312;2022-09-30T00:33:22;18.10;;;10.30;;
7169;SDS011;3626;42.656;23.312;2022-09-30T00:33:28;18.65;;;10.10;;
7169;SDS011;3626;42.656;23.312;2022-09-30T00:33:34;18.25;;;10.02;;
7169;SDS011;3626;42.656;23.312;2022-09-30T00:33:40;19.40;;;10.00;;
7169;SDS011;3626;42.656;23.312;2022-09-30T00:33:47;20.70;;;9.82;;
7169;SDS011;3626;42.656;23.312;2022-09-30T00:34:12;20.52;;;9.98;;
7169;SDS011;3626;42.656;23.312;2022-09-30T00:34:17;20.43;;;10.10;;
7169;SDS011;3626;42.656;23.312;2022-09-30T00:34:25;18.53;;;10.17;;
7169;SDS011;3626;42.656;23.312;2022-09-30T00:34:30;18.27;;;10.20;;
7169;SDS011;3626;42.656;23.312;2022-09-30T00:34:36;18.08;;;10.18;;
7169;SDS011;3626;42.656;23.312;2022-09-30T00:34:42;15.63;;;10.18;;
7169;SDS011;3626;42.656;23.312;2022-09-30T00:34:48;14.52;;;9.90;;
7169;SDS011;3626;42.656;23.312;2022-09-30T00:34:53;14.43;;;9.90;;
7169;SDS011;3626;42.656;23.312;2022-09-30T00:34:59;14.13;;;9.77;;
7169;SDS011;3626;42.656;23.312;2022-09-30T00:35:05;14.07;;;9.70;;
7169;SDS011;3626;42.656;23.312;2022-09-30T00:35:11;14.75;;;9.60;;
7169;SDS011;3626;42.656;23.312;2022-09-30T00:35:17;15.02;;;9.57;;
7169;SDS011;3626;42.656;23.312;2022-09-30T00:35:24;15.26;;;9.60;;
7169;SDS011;3626;42.656;23.312;2022-09-30T00:35:30;16.45;;;9.68;;
7169;SDS011;3626;42.656;23.312;2022-09-30T00:35:36;16.67;;;9.75;;
7169;SDS011;3626;42.656;23.312;2022-09-30T00:35:42;16.45;;;9.68;;
7169;SDS011;3626;42.656;23.312;2022-09-30T00:35:47;16.97;;;9.83;;
7169;SDS011;3626;42.656;23.312;2022-09-30T00:35:53;16.75;;;9.65;;
7169;SDS011;3626;42.656;23.312;2022-09-30T00:35:59;17.52;;;9.73;;
7169;SDS011;3626;42.656;23.312;2022-09-30T00:36:07;17.53;;;9.90;;
7169;SDS011;3626;42.656;23.312;2022-09-30T00:36:13;16.75;;;10.20;;
7169;SDS011;3626;42.656;23.312;2022-09-30T00:36:18;17.88;;;10.35;;
7169;SDS011;3626;42.656;23.312;2022-09-30T00:36:24;17.98;;;10.50;;
7169;SDS011;3626;42.656;23.312;2022-09-30T00:36:30;16.83;;;10.43;;
7169;SDS011;3626;42.656;23.312;2022-09-30T00:36:36;17.20;;;10.60;;
7169;SDS011;3626;42.656;23.312;2022-09-30T00:36:47;17.98;;;10.55;;
7169;SDS011;3626;42.656;23.312;2022-09-30T00:36:54;18.38;;;10.76;;
7169;SDS011;3626;42.656;23.312;2022-09-30T00:37:00;17.40;;;10.52;;
7169;SDS011;3626;42.656;23.312;2022-09-30T00:37:07;17.80;;;10.53;;
7169;SDS011;3626;42.656;23.312;2022-09-30T00:37:13;17.40;;;10.23;;
7169;SDS011;3626;42.656;23.312;2022-09-30T00:37:20;16.68;;;10.04;;
7169;SDS011;3626;42.656;23.312;2022-09-30T00:37:26;16.58;;;10.00;;
7169;SDS011;3626;42.656;23.312;2022-09-30T00:37:32;17.02;;;9.98;;
7169;SDS011;3626;42.656;23.312;2022-09-30T00:37:38;16.50;;;9.98;;
7169;SDS011;3626;42.656;23.312;2022-09-30T00:37:43;16.60;;;10.13;;
7169;SDS011;3626;42.656;23.312;2022-09-30T00:37:49;17.48;;;10.05;;
7169;SDS011;3626;42.656;23.312;2022-09-30T00:37:55;17.52;;;9.80;;
7169;SDS011;3626;42.656;23.312;2022-09-30T00:38:01;17.60;;;9.88;;